Time;durP1;ratioP1;P1;durP2;ratioP2;P2;SDS_P1;SDS_P2;PMS_P1;PMS_P2;Temp;Humidity;BMP_temperature;BMP_pressure;BME280_temperature;BME280_humidity;BME280_pressure;Samples;Min_cycle;Max_cycle;Signal;HPM_P1;HPM_P2
2022/04/26 03:37:17;;;;;;;20.42;8.50;;;;;;;;;;5092500;28;20063;-51
2022/04/26 03:39:43;;;;;;;15.73;6.85;;;;;;;;;;5094307;28;20046;-51
2022/04/26 03:42:09;;;;;;;18.45;6.97;;;;;;;;;;5093024;28;20508;-56
2022/04/26 03:44:35;;;;;;;13.52;6.28;;;;;;;;;;5093127;28;20448;-55
2022/04/26 03:47:02;;;;;;;17.05;6.60;;;;;;;;;;5092584;28;20067;-55
2022/04/26 03:49:28;;;;;;;14.00;6.32;;;;;;;;;;5092944;28;20450;-54
2022/04/26 03:51:54;;;;;;;18.08;6.25;;;;;;;;;;5094453;28;20582;-55
2022/04/26 03:54:21;;;;;;;13.10;5.82;;;4.90;99.90;;;;;;5093844;28;20035;-55
2022/04/26 03:56:47;;;;;;;13.85;5.78;;;4.70;99.90;;;;;;5093095;28;20396;-56
2022/04/26 03:59:14;;;;;;;12.55;5.63;;;4.60;99.90;;;;;;5092753;28;22250;-56
2022/04/26 04:01:41;;;;;;;13.82;5.40;;;;;;;;;;5094430;28;20305;-55
2022/04/26 04:04:07;;;;;;;13.90;4.88;;;;;;;;;;5093191;28;20126;-55
2022/04/26 04:06:33;;;;;;;11.38;5.05;;;;;;;;;;5093348;28;20396;-53
2022/04/26 04:08:59;;;;;;;15.30;5.65;;;;;;;;;;5092454;28;20693;-54
2022/04/26 04:11:24;;;;;;;12.80;4.90;;;4.60;99.90;;;;;;5094267;28;20538;-54
2022/04/26 04:13:52;;;;;;;12.38;4.78;;;4.50;99.90;;;;;;5093478;28;20297;-54
2022/04/26 04:16:18;;;;;;;13.00;4.82;;;;;;;;;;5092725;28;20118;-54
2022/04/26 04:21:29;;;;;;;12.30;4.65;;;;;;;;;;5090763;28;20047;-54
2022/04/26 04:23:55;;;;;;;18.90;5.13;;;;;;;;;;5092188;28;20040;-52
2022/04/26 04:26:21;;;;;;;13.48;5.40;;;;;;;;;;5092390;28;20680;-52
2022/04/26 04:28:48;;;;;;;17.10;5.30;;;4.90;99.90;;;;;;5092931;28;20044;-52
2022/04/26 04:31:14;;;;;;;19.42;6.50;;;4.80;99.90;;;;;;5092083;28;20046;-52
2022/04/26 04:33:40;;;;;;;16.30;5.55;;;4.80;99.90;;;;;;5089737;28;20055;-51
2022/04/26 04:36:06;;;;;;;13.45;5.30;;;;;;;;;;5091795;28;20051;-53
2022/04/26 04:38:32;;;;;;;18.25;5.22;;;5.00;99.90;;;;;;5093062;28;20044;-53
2022/04/26 04:40:58;;;;;;;15.00;5.55;;;;;;;;;;5092806;28;20081;-52
2022/04/26 04:43:26;;;;;;;19.40;5.47;;;5.20;99.90;;;;;;5092573;28;20927;-53
2022/04/26 04:45:52;;;;;;;20.77;5.93;;;5.40;99.90;;;;;;5093557;28;20048;-49
2022/04/26 04:48:17;;;;;;;13.40;5.05;;;5.50;99.90;;;;;;5094684;28;20432;-51
2022/04/26 04:50:44;;;;;;;17.70;6.07;;;5.40;99.90;;;;;;5096440;28;20122;-52
2022/04/26 04:53:10;;;;;;;14.68;5.05;;;5.50;99.90;;;;;;5095167;28;20046;-53
2022/04/26 04:55:36;;;;;;;11.68;6.03;;;;;;;;;;5095132;28;20046;-51
2022/04/26 04:58:04;;;;;;;14.25;4.65;;;5.60;99.90;;;;;;5096000;28;20127;-49
2022/04/26 05:00:30;;;;;;;19.50;5.60;;;5.60;99.90;;;;;;5094735;28;20036;-50
2022/04/26 05:02:56;;;;;;;10.70;4.45;;;5.80;99.90;;;;;;5095537;28;20408;-51
2022/04/26 05:05:22;;;;;;;18.10;6.80;;;5.80;99.90;;;;;;5094733;28;21364;-51
2022/04/26 05:07:48;;;;;;;9.93;5.00;;;5.80;99.90;;;;;;5096612;28;20116;-49
2022/04/26 05:10:14;;;;;;;17.35;5.05;;;6.00;99.90;;;;;;5095569;28;20048;-49
2022/04/26 05:12:41;;;;;;;13.15;5.20;;;6.10;99.90;;;;;;5096529;28;20122;-49
2022/04/26 05:15:07;;;;;;;21.67;5.80;;;6.20;99.90;;;;;;5094621;28;20071;-50
2022/04/26 05:17:33;;;;;;;17.42;4.55;;;6.40;99.90;;;;;;5095638;28;20154;-51
2022/04/26 05:19:59;;;;;;;15.88;5.28;;;6.50;99.90;;;;;;5095295;28;20045;-51
2022/04/26 05:22:24;;;;;;;12.68;5.10;;;6.80;99.90;;;;;;5095095;28;20062;-49
2022/04/26 05:24:53;;;;;;;16.20;6.95;;;7.60;99.90;;;;;;5095637;28;20032;-48
2022/04/26 05:27:23;;;;;;;11.05;4.47;;;8.20;99.90;;;;;;5093548;28;20043;-50
2022/04/26 05:29:49;;;;;;;16.75;4.50;;;7.10;99.90;;;;;;5093112;28;20716;-48
2022/04/26 05:32:34;;;;;;;17.88;4.88;;;8.80;99.90;;;;;;5093668;28;20054;-51
2022/04/26 05:35:03;;;;;;;11.70;4.40;;;7.70;99.90;;;;;;5092273;28;20123;-51
2022/04/26 05:37:31;;;;;;;11.32;4.32;;;8.40;99.90;;;;;;5093163;28;20051;-48
2022/04/26 05:40:02;;;;;;;17.55;4.88;;;10.20;99.90;;;;;;5094721;28;20938;-47
2022/04/26 05:42:30;;;;;;;12.17;3.83;;;9.80;99.90;;;;;;5094388;28;20039;-51
2022/04/26 05:44:57;;;;;;;13.02;3.72;;;10.20;99.90;;;;;;5093025;28;20047;-53
2022/04/26 05:47:22;;;;;;;13.02;3.60;;;10.80;99.90;;;;;;5126727;27;20046;-51
2022/04/26 05:49:51;;;;;;;11.27;3.63;;;11.10;99.90;;;;;;5093373;28;20535;-50
2022/04/26 05:52:16;;;;;;;14.82;3.90;;;11.70;99.90;;;;;;5094317;28;20043;-53
2022/04/26 05:54:42;;;;;;;12.80;3.63;;;13.10;99.90;;;;;;5093699;28;20435;-47
2022/04/26 05:57:09;;;;;;;9.82;3.20;;;12.60;99.90;;;;;;5092587;28;20036;-46
2022/04/26 05:59:34;;;;;;;12.45;3.08;;;13.00;99.90;;;;;;5092784;28;20087;-46
2022/04/26 06:02:00;;;;;;;10.85;2.67;;;13.70;99.90;;;;;;5093551;28;20792;-50
2022/04/26 06:04:29;;;;;;;14.27;2.90;;;14.30;99.90;;;;;;5073784;28;20119;-48
2022/04/26 06:06:54;;;;;;;6.82;2.60;;;16.20;99.90;;;;;;5093354;28;20040;-47
2022/04/26 06:09:20;;;;;;;11.40;3.10;;;15.40;99.90;;;;;;5092886;28;20065;-45
2022/04/26 06:11:46;;;;;;;7.60;2.40;;;17.40;99.90;;;;;;5092818;28;20248;-48
2022/04/26 06:14:12;;;;;;;10.25;2.90;;;16.20;99.90;;;;;;5093171;28;20623;-51
2022/04/26 06:16:38;;;;;;;9.80;2.88;;;16.10;99.90;;;;;;5094860;28;20040;-53
2022/04/26 06:19:03;;;;;;;8.98;3.55;;;16.60;99.90;;;;;;5093903;28;20067;-49
2022/04/26 06:21:29;;;;;;;6.80;2.50;;;16.60;99.90;;;;;;5094798;28;20041;-50
2022/04/26 06:23:55;;;;;;;9.43;3.22;;;17.50;99.90;;;;;;5092601;28;20447;-50
2022/04/26 06:26:20;;;;;;;12.85;3.20;;;16.80;99.90;;;;;;5095478;28;20116;-49
2022/04/26 06:28:46;;;;;;;8.32;2.50;;;18.70;99.90;;;;;;5092321;28;20311;-48
2022/04/26 06:31:12;;;;;;;8.80;2.28;;;17.90;99.90;;;;;;5093497;28;20036;-50
2022/04/26 06:33:38;;;;;;;9.82;2.90;;;16.60;99.90;;;;;;5093816;28;20036;-50
2022/04/26 06:36:06;;;;;;;7.25;3.00;;;16.70;99.90;;;;;;5093401;28;20059;-48
2022/04/26 06:38:33;;;;;;;12.30;3.50;;;16.60;99.90;;;;;;5093622;28;20516;-49
2022/04/26 06:41:00;;;;;;;10.15;2.72;;;15.90;99.90;;;;;;5092736;28;20139;-49
2022/04/26 06:43:25;;;;;;;8.65;2.95;;;14.30;99.90;;;;;;5093786;28;20044;-50
2022/04/26 06:45:51;;;;;;;8.35;2.95;;;13.80;99.90;;;;;;5092865;28;20040;-49
2022/04/26 06:48:17;;;;;;;7.28;2.72;;;12.20;99.90;;;;;;5093277;28;20209;-50
2022/04/26 06:50:44;;;;;;;7.97;2.53;;;13.80;99.90;;;;;;5090653;28;20043;-51
2022/04/26 06:53:15;;;;;;;10.70;2.95;;;11.60;99.90;;;;;;5126208;27;20122;-46
2022/04/26 06:55:41;;;;;;;8.63;3.17;;;13.50;99.90;;;;;;5091461;28;20058;-52
2022/04/26 06:58:06;;;;;;;9.32;3.00;;;13.40;99.90;;;;;;5093963;28;20451;-51
2022/04/26 07:00:33;;;;;;;9.15;2.70;;;14.70;99.90;;;;;;5093680;28;20039;-49
2022/04/26 07:02:58;;;;;;;11.73;3.67;;;18.30;99.90;;;;;;5092600;28;20526;-51
2022/04/26 07:05:24;;;;;;;10.57;3.28;;;19.40;99.90;;;;;;5091406;28;20043;-48
2022/04/26 07:07:52;;;;;;;8.88;2.42;;;17.80;99.90;;;;;;5092509;28;20035;-49
2022/04/26 07:10:18;;;;;;;7.95;2.05;;;17.20;99.90;;;;;;5092580;28;20066;-49
2022/04/26 07:12:44;;;;;;;8.70;2.55;;;14.60;99.90;;;;;;5093340;28;20045;-51
2022/04/26 07:15:09;;;;;;;40.97;24.10;;;14.70;99.90;;;;;;5092909;28;20484;-50
2022/04/26 07:17:41;;;;;;;9.00;2.85;;;14.10;99.90;;;;;;5092101;28;20043;-50
2022/04/26 07:20:08;;;;;;;7.82;2.92;;;12.90;99.90;;;;;;5092767;28;20563;-50
2022/04/26 07:22:36;;;;;;;8.48;2.90;;;12.70;99.90;;;;;;5093948;28;20040;-50
2022/04/26 07:25:03;;;;;;;12.45;2.78;;;12.80;99.90;;;;;;5093852;28;20410;-49
2022/04/26 07:27:28;;;;;;;8.15;2.80;;;11.90;99.90;;;;;;5093559;28;20078;-47
2022/04/26 07:29:54;;;;;;;15.43;3.70;;;13.30;99.90;;;;;;5092534;28;20059;-49
2022/04/26 07:34:20;;;;;;;11.50;2.95;;;11.30;99.90;;;;;;5093959;28;20077;-49
2022/04/26 07:35:06;;;;;;;9.68;2.45;;;11.00;99.90;;;;;;5091564;28;20053;-50
2022/04/26 07:37:34;;;;;;;11.30;2.95;;;10.70;99.90;;;;;;5092601;28;20054;-48
2022/04/26 07:39:59;;;;;;;13.65;4.10;;;10.70;99.90;;;;;;5093419;28;20070;-50
2022/04/26 07:42:25;;;;;;;10.95;2.40;;;11.80;99.90;;;;;;5093116;28;20499;-49
2022/04/26 07:44:54;;;;;;;10.02;2.60;;;13.40;99.90;;;;;;5093618;28;20038;-50
2022/04/26 07:47:24;;;;;;;8.27;2.53;;;13.90;99.90;;;;;;5092468;28;20064;-50
2022/04/26 07:49:52;;;;;;;11.18;2.90;;;14.50;99.90;;;;;;5093885;28;20046;-49
2022/04/26 07:52:19;;;;;;;7.65;2.90;;;14.10;99.90;;;;;;5093487;28;20503;-50
2022/04/26 07:54:46;;;;;;;9.13;2.60;;;13.90;99.90;;;;;;5092408;28;20527;-50
2022/04/26 07:57:12;;;;;;;7.90;2.47;;;13.40;99.90;;;;;;5092751;28;20042;-49
2022/04/26 07:59:38;;;;;;;11.75;2.47;;;13.40;99.90;;;;;;5089689;28;20826;-48
2022/04/26 08:02:10;;;;;;;10.10;2.28;;;13.20;99.90;;;;;;5092223;28;20133;-51
2022/04/26 08:04:37;;;;;;;6.13;2.35;;;13.80;99.90;;;;;;5092806;28;20047;-51
2022/04/26 08:07:05;;;;;;;6.88;2.20;;;15.20;99.90;;;;;;5092083;28;20043;-50
2022/04/26 08:09:38;;;;;;;8.73;2.67;;;14.40;99.90;;;;;;5092493;28;20059;-51
2022/04/26 08:12:06;;;;;;;9.75;2.70;;;14.00;99.90;;;;;;5093294;28;20039;-48
2022/04/26 08:14:32;;;;;;;8.50;3.25;;;13.40;99.90;;;;;;5091941;28;20032;-49
2022/04/26 08:16:57;;;;;;;7.72;2.97;;;12.90;99.90;;;;;;5109098;27;20048;-48
2022/04/26 08:19:23;;;;;;;9.13;2.17;;;13.30;99.90;;;;;;5095588;28;20108;-50
2022/04/26 08:21:49;;;;;;;8.27;2.65;;;14.40;99.90;;;;;;5095573;28;20093;-50
2022/04/26 08:29:46;;;;;;;8.68;2.53;;;15.60;99.90;;;;;;5095432;28;20039;-50
2022/04/26 08:32:14;;;;;;;7.45;2.28;;;15.60;99.90;;;;;;5095526;28;20478;-48
2022/04/26 08:34:41;;;;;;;9.25;3.13;;;14.80;99.90;;;;;;5095844;28;20035;-48
2022/04/26 08:37:07;;;;;;;8.10;2.40;;;16.60;99.90;;;;;;5094052;28;20054;-52
2022/04/26 08:39:33;;;;;;;11.82;2.80;;;15.70;99.90;;;;;;5095642;28;20632;-49
2022/04/26 08:41:59;;;;;;;8.23;2.30;;;14.10;99.90;;;;;;5094647;28;20043;-50
2022/04/26 08:44:27;;;;;;;8.43;2.42;;;13.60;99.90;;;;;;5094524;28;20088;-51
2022/04/26 08:52:23;;;;;;;13.68;4.60;;;12.30;99.90;;;;;;5093790;28;20055;-51
2022/04/26 08:54:49;;;;;;;9.90;4.25;;;13.80;99.90;;;;;;5095997;28;20395;-50
2022/04/26 08:57:15;;;;;;;10.88;4.97;;;12.40;99.90;;;;;;5094796;28;20515;-49
2022/04/26 08:59:52;;;;;;;13.23;5.63;;;12.80;99.90;;;;;;5094436;28;20035;-50
2022/04/26 09:02:19;;;;;;;7.07;2.60;;;13.00;99.90;;;;;;5095935;28;20054;-50
2022/04/26 09:04:46;;;;;;;11.93;2.65;;;13.00;99.90;;;;;;5094341;28;20313;-51
2022/04/26 09:07:31;;;;;;;10.68;3.78;;;13.20;99.90;;;;;;5095171;28;20709;-51
2022/04/26 09:10:10;;;;;;;8.73;3.08;;;13.60;99.90;;;;;;5094716;28;20628;-50
2022/04/26 09:13:08;;;;;;;5.85;2.13;;;14.20;99.90;;;;;;5094781;28;20043;-52
2022/04/26 09:15:54;;;;;;;10.85;3.03;;;14.50;99.90;;;;;;5094883;28;20039;-50
2022/04/26 09:18:27;;;;;;;6.85;2.97;;;14.90;99.90;;;;;;5094846;28;20048;-51
2022/04/26 09:20:56;;;;;;;6.90;3.60;;;14.30;99.90;;;;;;5095097;28;20073;-48
2022/04/26 09:23:25;;;;;;;13.65;5.93;;;13.90;99.90;;;;;;5095525;28;20124;-47
2022/04/26 09:25:57;;;;;;;10.85;5.07;;;13.80;99.90;;;;;;5093823;28;20032;-47
2022/04/26 09:28:29;;;;;;;10.15;4.15;;;12.90;99.90;;;;;;5093893;28;20757;-48
2022/04/26 09:30:56;;;;;;;9.53;3.20;;;13.20;99.90;;;;;;5093995;28;20047;-47
2022/04/26 09:33:46;;;;;;;7.68;2.58;;;12.90;99.90;;;;;;5093827;28;21476;-46
2022/04/26 09:36:13;;;;;;;13.98;5.07;;;13.10;99.90;;;;;;5092305;28;20215;-48
2022/04/26 09:38:41;;;;;;;8.48;3.25;;;12.50;99.90;;;;;;5093642;28;20047;-46
2022/04/26 09:41:09;;;;;;;10.02;3.10;;;14.60;99.90;;;;;;5094100;28;20042;-47
2022/04/26 09:43:36;;;;;;;6.63;3.10;;;14.80;99.90;;;;;;5095612;28;20474;-52
2022/04/26 09:46:04;;;;;;;7.15;2.03;;;14.50;99.90;;;;;;5094565;28;20445;-50
2022/04/26 09:48:38;;;;;;;6.28;2.53;;;14.00;99.90;;;;;;5092792;28;20047;-49
2022/04/26 09:51:06;;;;;;;5.85;2.55;;;14.20;99.90;;;;;;5095347;28;20132;-50
2022/04/26 09:53:32;;;;;;;7.38;3.25;;;14.10;99.90;;;;;;5094068;28;20043;-49
2022/04/26 09:56:01;;;;;;;7.22;2.70;;;16.00;99.90;;;;;;5094162;28;20031;-48
2022/04/26 09:58:28;;;;;;;9.38;2.97;;;13.50;99.90;;;;;;5095129;28;20416;-49
2022/04/26 10:00:56;;;;;;;8.48;2.95;;;13.60;99.90;;;;;;5095214;28;20122;-47
2022/04/26 10:03:43;;;;;;;6.15;2.55;;;13.40;99.90;;;;;;5093869;28;20035;-49
2022/04/26 10:06:16;;;;;;;7.60;2.88;;;13.40;99.90;;;;;;5093927;28;20536;-48
2022/04/26 10:08:45;;;;;;;5.72;2.03;;;13.50;99.90;;;;;;5094086;28;20153;-49
2022/04/26 10:11:11;;;;;;;5.72;2.15;;;15.10;99.90;;;;;;5094332;28;20232;-46
2022/04/26 10:13:39;;;;;;;6.60;2.20;;;16.50;99.90;;;;;;5095135;28;20381;-50
2022/04/26 10:16:12;;;;;;;6.40;2.60;;;14.70;99.90;;;;;;5093353;28;20035;-51
2022/04/26 10:18:43;;;;;;;4.45;2.25;;;14.80;99.90;;;;;;5093647;28;20092;-50
2022/04/26 10:21:10;;;;;;;9.17;2.50;;;14.30;99.90;;;;;;5092935;28;20842;-49
2022/04/26 10:23:51;;;;;;;7.40;2.45;;;14.60;99.90;;;;;;5092667;28;20040;-50
2022/04/26 10:28:57;;;;;;;7.10;2.22;;;14.50;99.90;;;;;;5093489;28;20531;-49
2022/04/26 10:31:41;;;;;;;29.83;14.48;;;14.70;99.90;;;;;;5094143;28;20071;-48
2022/04/26 10:34:26;;;;;;;5.20;2.20;;;14.50;99.90;;;;;;5093132;28;20074;-51
2022/04/26 10:37:06;;;;;;;5.93;2.42;;;16.00;99.90;;;;;;5091187;28;20075;-48
2022/04/26 10:39:35;;;;;;;10.18;5.75;;;15.00;99.90;;;;;;5094563;28;20055;-48
2022/04/26 10:42:07;;;;;;;14.65;7.90;;;14.90;99.90;;;;;;5091097;28;20092;-49
2022/04/26 10:44:39;;;;;;;5.95;2.78;;;14.20;99.90;;;;;;5093922;28;20538;-51
2022/04/26 10:47:05;;;;;;;5.35;2.08;;;14.50;99.90;;;;;;5094108;28;20035;-50
2022/04/26 10:49:35;;;;;;;7.00;2.30;;;14.30;99.90;;;;;;5092956;28;20122;-49
2022/04/26 10:52:22;;;;;;;6.72;2.55;;;14.40;99.90;;;;;;5093400;28;20044;-50
2022/04/26 10:57:19;;;;;;;6.82;2.40;;;15.30;99.90;;;;;;5091757;28;20459;-49
2022/04/26 10:59:46;;;;;;;6.03;2.08;;;14.80;99.90;;;;;;5093172;28;20039;-50
2022/04/26 11:02:15;;;;;;;7.60;2.35;;;15.30;99.90;;;;;;5093163;28;20035;-45
2022/04/26 11:04:41;;;;;;;6.50;1.90;;;15.10;99.90;;;;;;5092616;28;20035;-47
2022/04/26 11:07:16;;;;;;;5.75;1.73;;;16.80;99.90;;;;;;5092506;28;20036;-48
2022/04/26 11:09:53;;;;;;;4.50;1.80;;;14.70;99.90;;;;;;5091830;28;20039;-47
2022/04/26 11:12:24;;;;;;;6.38;2.10;;;15.40;99.90;;;;;;5092636;28;20155;-46
2022/04/26 11:14:53;;;;;;;6.85;1.92;;;15.50;99.90;;;;;;5094048;28;20031;-48
2022/04/26 11:17:24;;;;;;;6.68;2.15;;;15.90;99.90;;;;;;5092226;28;20127;-46
2022/04/26 11:19:58;;;;;;;6.55;2.08;;;17.10;99.90;;;;;;5090499;28;20047;-49
2022/04/26 11:22:25;;;;;;;8.70;2.28;;;15.30;99.90;;;;;;5092703;28;20046;-48
2022/04/26 11:28:06;;;;;;;5.05;2.17;;;15.10;99.90;;;;;;5093074;28;20068;-49
2022/04/26 11:30:38;;;;;;;6.20;1.90;;;16.00;99.90;;;;;;5091945;28;20499;-47
2022/04/26 11:33:10;;;;;;;3.83;1.67;;;17.20;99.90;;;;;;5092695;28;20043;-46
2022/04/26 11:35:37;;;;;;;9.05;2.78;;;16.90;99.90;;;;;;5091700;28;20051;-49
2022/04/26 11:38:12;;;;;;;6.80;1.95;;;15.30;99.90;;;;;;5092773;28;20130;-50
2022/04/26 11:40:48;;;;;;;7.10;2.45;;;14.60;99.90;;;;;;5092357;28;20055;-49
2022/04/26 11:43:16;;;;;;;7.97;2.15;;;17.20;99.90;;;;;;5093645;28;20039;-46
2022/04/26 11:45:46;;;;;;;8.38;2.50;;;14.70;99.90;;;;;;5091815;28;20071;-50
2022/04/26 11:48:13;;;;;;;7.53;2.40;;;15.00;99.90;;;;;;5091319;28;20123;-49
2022/04/26 11:50:41;;;;;;;9.13;2.33;;;14.90;99.90;;;;;;5092548;28;20070;-49
2022/04/26 11:53:11;;;;;;;7.35;2.22;;;14.80;99.90;;;;;;5093434;28;20762;-45
2022/04/26 11:55:43;;;;;;;5.75;2.03;;;14.80;99.90;;;;;;5096478;28;20048;-49
2022/04/26 11:58:16;;;;;;;8.43;2.67;;;16.40;99.90;;;;;;5095550;28;20035;-49
2022/04/26 12:01:11;;;;;;;11.32;2.47;;;14.20;99.90;;;;;;5095690;28;20035;-48
2022/04/26 12:03:52;;;;;;;8.48;2.30;;;13.90;99.90;;;;;;5095315;28;20114;-48
2022/04/26 12:06:26;;;;;;;7.13;2.60;;;14.30;99.90;;;;;;5095572;28;20315;-44
2022/04/26 12:09:03;;;;;;;7.22;2.10;;;14.70;99.90;;;;;;5096128;28;20043;-47
2022/04/26 12:11:36;;;;;;;4.45;1.92;;;14.70;99.90;;;;;;5094824;28;20411;-46
2022/04/26 12:14:06;;;;;;;6.97;2.55;;;14.60;99.90;;;;;;5094733;28;20044;-49
2022/04/26 12:16:37;;;;;;;5.13;1.90;;;14.70;99.90;;;;;;5096475;28;20039;-47
2022/04/26 12:19:03;;;;;;;9.70;2.00;;;14.40;99.90;;;;;;5096855;28;20400;-45
2022/04/26 12:21:47;;;;;;;5.45;2.05;;;14.40;99.90;;;;;;5127093;27;20043;-45
2022/04/26 12:24:23;;;;;;;8.52;2.45;;;14.70;99.90;;;;;;5096118;28;20075;-49
2022/04/26 12:27:00;;;;;;;7.32;2.25;;;15.10;99.90;;;;;;5094842;28;20880;-47
2022/04/26 12:29:28;;;;;;;5.13;2.10;;;15.30;99.90;;;;;;5095259;28;20053;-48
2022/04/26 12:31:57;;;;;;;7.18;2.58;;;15.70;99.90;;;;;;5094848;28;21142;-47
2022/04/26 12:34:29;;;;;;;6.53;2.15;;;15.80;99.90;;;;;;5075985;28;20400;-47
2022/04/26 12:37:11;;;;;;;6.68;2.10;;;17.50;99.90;;;;;;5095093;28;20047;-45
2022/04/26 12:39:48;;;;;;;7.17;2.27;;;16.00;99.90;;;;;;5096415;28;20047;-49
2022/04/26 12:42:36;;;;;;;5.95;2.17;;;15.40;99.90;;;;;;5094598;28;20032;-49
2022/04/26 12:45:10;;;;;;;8.15;2.30;;;15.30;99.90;;;;;;5095439;28;20647;-48
2022/04/26 12:50:35;;;;;;;5.15;1.90;;;14.90;99.90;;;;;;5096833;28;20051;-47
2022/04/26 12:53:05;;;;;;;4.95;2.15;;;14.60;99.90;;;;;;5096318;28;20040;-49
2022/04/26 12:55:39;;;;;;;9.43;3.50;;;14.80;99.90;;;;;;5094970;28;20043;-47
2022/04/26 12:58:10;;;;;;;6.43;2.67;;;14.80;99.90;;;;;;5088933;28;20071;-44
2022/04/26 13:00:55;;;;;;;6.60;2.53;;;14.60;99.90;;;;;;5095321;28;20046;-50
2022/04/26 13:03:24;;;;;;;6.65;2.10;;;14.10;99.90;;;;;;5094693;28;20143;-48
2022/04/26 13:06:03;;;;;;;5.50;2.05;;;14.30;99.90;;;;;;5095189;28;20408;-49
2022/04/26 13:08:29;;;;;;;9.23;3.53;;;16.00;99.90;;;;;;5095641;28;20122;-45
2022/04/26 13:10:55;;;;;;;6.38;2.30;;;14.90;99.90;;;;;;5094119;28;20122;-50
2022/04/26 13:13:20;;;;;;;8.48;2.45;;;14.80;99.90;;;;;;5092590;28;20047;-48
2022/04/26 13:15:48;;;;;;;5.93;2.30;;;15.00;99.90;;;;;;5096228;28;20415;-49
2022/04/26 13:18:15;;;;;;;6.50;2.33;;;16.10;99.90;;;;;;5094719;28;20047;-46
2022/04/26 13:20:43;;;;;;;10.15;2.80;;;15.20;99.90;;;;;;5094129;28;20093;-48
2022/04/26 13:23:09;;;;;;;5.43;2.08;;;14.00;99.90;;;;;;5095073;28;20039;-46
2022/04/26 13:25:35;;;;;;;6.28;1.70;;;14.10;99.90;;;;;;5093905;28;20375;-44
2022/04/26 13:28:03;;;;;;;6.45;2.00;;;14.10;99.90;;;;;;5095038;28;20035;-45
2022/04/26 13:30:31;;;;;;;6.53;2.40;;;14.20;99.90;;;;;;5093677;28;24770;-44
2022/04/26 13:32:57;;;;;;;8.27;2.70;;;14.10;99.90;;;;;;5095481;28;20047;-46
2022/04/26 13:35:25;;;;;;;8.82;2.40;;;14.00;99.90;;;;;;5095263;28;20527;-48
2022/04/26 13:37:55;;;;;;;6.55;1.85;;;14.80;99.90;;;;;;5094552;28;20511;-47
2022/04/26 13:40:21;;;;;;;10.25;2.03;;;13.60;99.90;;;;;;5094500;28;20650;-48
2022/04/26 13:42:47;;;;;;;5.22;2.00;;;14.50;99.90;;;;;;5094459;28;20127;-50
2022/04/26 13:45:15;;;;;;;5.22;1.73;;;13.90;99.90;;;;;;5095257;28;20637;-46
2022/04/26 13:47:41;;;;;;;7.00;2.22;;;14.50;99.90;;;;;;5093948;28;20076;-48
2022/04/26 13:50:08;;;;;;;4.70;1.80;;;13.90;99.90;;;;;;5093442;28;20039;-46
2022/04/26 13:52:34;;;;;;;4.80;2.10;;;13.90;99.90;;;;;;5093056;28;20043;-49
2022/04/26 13:55:00;;;;;;;4.88;1.95;;;14.50;99.90;;;;;;5095434;27;20093;-48
2022/04/26 13:57:26;;;;;;;5.15;2.22;;;13.50;99.90;;;;;;5094731;28;20054;-49
2022/04/26 13:59:52;;;;;;;5.70;2.10;;;13.50;99.90;;;;;;5092328;28;20681;-48
2022/04/26 14:02:21;;;;;;;8.63;2.40;;;13.70;99.90;;;;;;5094500;28;20032;-48
2022/04/26 14:04:48;;;;;;;5.63;2.05;;;15.10;99.90;;;;;;5095489;28;20028;-48
2022/04/26 14:07:14;;;;;;;6.18;2.20;;;16.20;99.90;;;;;;5094250;28;20043;-50
2022/04/26 14:09:40;;;;;;;4.72;2.10;;;15.00;99.90;;;;;;5093389;28;20403;-48
2022/04/26 14:12:08;;;;;;;7.28;2.10;;;14.70;99.90;;;;;;5095614;28;20043;-50
2022/04/26 14:22:53;;;;;;;7.68;1.90;;;14.00;99.90;;;;;;5095042;28;20431;-48
2022/04/26 14:25:19;;;;;;;5.72;1.88;;;13.70;99.90;;;;;;5093138;28;20043;-50
2022/04/26 14:27:47;;;;;;;7.82;2.20;;;13.60;99.90;;;;;;5094079;28;20043;-46
2022/04/26 14:30:14;;;;;;;5.93;2.53;;;14.50;99.90;;;;;;5093076;28;20044;-49
2022/04/26 14:32:40;;;;;;;7.68;2.17;;;13.80;99.90;;;;;;5094059;28;20388;-47
2022/04/26 14:35:06;;;;;;;6.15;1.98;;;13.80;99.90;;;;;;5094047;28;20081;-49
2022/04/26 14:37:35;;;;;;;5.13;1.55;;;13.90;99.90;;;;;;5093322;28;20138;-48
2022/04/26 14:40:03;;;;;;;6.30;2.50;;;13.10;99.90;;;;;;5127088;27;20054;-49
2022/04/26 14:42:29;;;;;;;5.15;2.30;;;14.10;99.90;;;;;;5093629;28;20047;-49
2022/04/26 14:44:57;;;;;;;7.10;2.17;;;13.80;99.90;;;;;;5093944;28;20534;-47
2022/04/26 14:47:26;;;;;;;6.05;2.17;;;14.40;99.90;;;;;;5092537;28;20038;-49
2022/04/26 14:49:54;;;;;;;7.28;1.90;;;14.70;99.90;;;;;;5092236;28;20071;-48
2022/04/26 14:52:21;;;;;;;4.53;2.10;;;14.10;99.90;;;;;;5091907;28;20422;-43
2022/04/26 14:54:50;;;;;;;7.00;2.63;;;13.80;99.90;;;;;;5092852;28;20050;-44
2022/04/26 14:57:17;;;;;;;6.63;2.30;;;14.80;99.90;;;;;;5092723;28;20039;-47
2022/04/26 14:59:48;;;;;;;5.60;1.90;;;14.00;99.90;;;;;;5092296;28;20078;-50
2022/04/26 15:02:17;;;;;;;9.95;2.30;;;13.80;99.90;;;;;;5092877;28;20047;-48
2022/04/26 15:04:48;;;;;;;5.93;1.63;;;14.70;99.90;;;;;;5092115;28;20797;-48
2022/04/26 15:07:14;;;;;;;5.45;1.92;;;13.70;99.90;;;;;;5093301;28;20046;-47
2022/04/26 15:09:44;;;;;;;11.95;2.42;;;13.60;99.90;;;;;;5092318;28;20047;-47
2022/04/26 15:17:44;;;;;;;9.70;2.40;;;14.10;99.90;;;;;;5091656;28;20044;-43
2022/04/26 15:20:12;;;;;;;7.20;2.15;;;13.90;99.90;;;;;;5092095;28;20055;-44
2022/04/26 15:22:38;;;;;;;8.52;2.17;;;13.50;99.90;;;;;;5093199;28;20051;-44
2022/04/26 15:25:06;;;;;;;5.47;1.98;;;13.50;99.90;;;;;;5092898;28;20123;-46
2022/04/26 15:27:34;;;;;;;7.93;1.80;;;13.30;99.90;;;;;;5091162;28;20043;-44
2022/04/26 15:30:00;;;;;;;6.28;2.20;;;15.00;99.90;;;;;;5090692;28;20043;-45
2022/04/26 15:32:28;;;;;;;6.20;2.00;;;13.70;99.90;;;;;;5092281;28;20036;-45
2022/04/26 15:34:53;;;;;;;5.63;2.08;;;13.30;99.90;;;;;;5092529;28;20040;-44
2022/04/26 15:37:19;;;;;;;5.63;1.80;;;13.10;99.90;;;;;;5092171;28;20419;-48
2022/04/26 15:39:47;;;;;;;7.75;2.40;;;13.00;99.90;;;;;;5092953;28;20085;-47
2022/04/26 15:42:14;;;;;;;8.38;2.08;;;13.20;99.90;;;;;;5093370;28;20547;-46
2022/04/26 15:44:40;;;;;;;6.50;2.10;;;15.10;99.90;;;;;;5092466;28;20632;-46
2022/04/26 15:47:06;;;;;;;6.70;2.40;;;12.80;99.90;;;;;;5091014;28;20043;-45
2022/04/26 15:49:32;;;;;;;9.32;2.33;;;12.70;99.90;;;;;;5091822;28;20039;-46
2022/04/26 15:51:57;;;;;;;8.00;2.47;;;12.80;99.90;;;;;;5092753;28;20043;-45
2022/04/26 15:54:25;;;;;;;9.48;2.22;;;12.60;99.90;;;;;;5092623;28;20043;-46
2022/04/26 15:56:51;;;;;;;5.53;2.25;;;13.50;99.90;;;;;;5092219;28;20042;-44
2022/04/26 15:59:17;;;;;;;6.93;2.40;;;12.60;99.90;;;;;;5091117;28;20040;-45
2022/04/26 16:01:45;;;;;;;9.45;2.30;;;13.50;99.90;;;;;;5093134;28;20042;-46
2022/04/26 16:04:12;;;;;;;6.30;2.03;;;14.00;99.90;;;;;;5091598;28;20886;-43
2022/04/26 16:06:39;;;;;;;8.10;2.17;;;14.20;99.90;;;;;;5091736;28;20042;-45
2022/04/26 16:22:49;;;;;;;7.78;2.90;;;12.30;99.90;;;;;;5093247;28;20496;-44
2022/04/26 16:25:17;;;;;;;6.00;2.40;;;12.30;99.90;;;;;;5091087;28;20097;-45
2022/04/26 16:27:43;;;;;;;5.25;2.28;;;12.30;99.90;;;;;;5091091;28;20666;-50
2022/04/26 16:30:12;;;;;;;6.78;1.98;;;12.20;99.90;;;;;;5092296;28;20067;-48
2022/04/26 16:32:38;;;;;;;6.75;2.78;;;12.10;99.90;;;;;;5087902;28;20126;-48
2022/04/26 16:35:06;;;;;;;6.75;2.33;;;12.60;99.90;;;;;;5091511;28;20044;-46
2022/04/26 16:37:32;;;;;;;6.75;2.00;;;12.10;99.90;;;;;;5091165;28;20054;-45
2022/04/26 16:39:57;;;;;;;6.35;1.92;;;13.10;99.90;;;;;;5094074;28;20586;-44
2022/04/26 16:42:23;;;;;;;6.32;2.88;;;11.90;99.90;;;;;;5094573;28;20031;-45
2022/04/26 16:44:49;;;;;;;7.45;2.20;;;11.80;99.90;;;;;;5095401;28;20589;-44
2022/04/26 16:47:14;;;;;;;7.80;2.28;;;13.60;99.90;;;;;;5095148;28;20702;-45
2022/04/26 16:49:40;;;;;;;8.95;2.30;;;12.00;99.90;;;;;;5094957;28;20036;-46
2022/04/26 16:52:06;;;;;;;7.47;2.10;;;13.20;99.90;;;;;;5095557;28;20748;-45
2022/04/26 16:54:34;;;;;;;5.88;1.80;;;11.80;99.90;;;;;;5095770;28;20092;-47
2022/04/26 16:57:01;;;;;;;8.65;2.55;;;11.70;99.90;;;;;;5094315;28;20588;-45
2022/04/26 16:59:29;;;;;;;7.10;2.00;;;13.80;99.90;;;;;;5094296;28;20055;-44
2022/04/26 17:01:57;;;;;;;6.18;1.90;;;14.00;99.90;;;;;;5093741;28;20048;-44
2022/04/26 17:04:24;;;;;;;6.38;1.80;;;11.70;99.90;;;;;;5095654;28;20036;-46
2022/04/26 17:06:50;;;;;;;6.55;2.03;;;11.70;99.90;;;;;;5095268;28;20043;-44
2022/04/26 17:09:16;;;;;;;11.48;2.28;;;11.90;99.90;;;;;;5094886;28;20043;-44
2022/04/26 17:11:42;;;;;;;6.15;1.80;;;13.00;99.90;;;;;;5095680;28;20043;-44
2022/04/26 17:14:17;;;;;;;7.88;2.08;;;11.60;99.90;;;;;;5096419;28;20050;-45
2022/04/26 17:16:46;;;;;;;5.43;2.08;;;11.40;99.90;;;;;;5096957;28;20694;-49
2022/04/26 17:19:12;;;;;;;7.97;2.20;;;11.00;99.90;;;;;;5094346;28;20667;-45
2022/04/26 17:21:38;;;;;;;7.47;2.20;;;10.90;99.90;;;;;;5094276;28;20796;-44
2022/04/26 17:25:13;;;;;;;6.72;2.08;;;10.60;99.90;;;;;;5094290;28;20032;-44
2022/04/26 17:26:51;;;;;;;10.65;2.65;;;10.50;99.90;;;;;;5094844;28;21122;-43